X  Chiuso Dati meteorologici dell'aviazione (METAR)     EDDM Munich Airport
Temperatura
2°C Temperatura
0°C Punto di rugiada
87% Umidità



Vento
3 MPH
5 KM/O
1 M/S
3 KTS



90°
E
Condizioni attuali

Chiaro Chiaro
Pressione 998.98 (hPa) - 29.5 (inHg)
Visibilità 6 (miglio) - 9.7 (km)
Aeroporto
Codice-Aeroporto EDDM

Posizione: Munich Airport
Distanza: 73 (mi)

Metar:
EDDM 232250Z AUTO 09003KT 060V130 CAVOK 02/00 Q0999 NOSIG

Ore: 23-02-2024 22:50 CET